createdAt,value
2022-11-06T00:00:44.933Z,5.47
2022-11-06T00:03:11.269Z,5.53
2022-11-06T00:05:59.951Z,5.33
2022-11-06T00:08:36.827Z,5.50
2022-11-06T00:11:13.177Z,5.60
2022-11-06T00:13:40.018Z,5.50
2022-11-06T00:16:07.255Z,5.80
2022-11-06T00:18:34.066Z,5.53
2022-11-06T00:21:05.956Z,5.80
2022-11-06T00:23:32.181Z,5.60
2022-11-06T00:25:58.439Z,5.63
2022-11-06T00:28:24.810Z,5.60
2022-11-06T00:30:51.070Z,5.50
2022-11-06T00:33:17.298Z,5.43
2022-11-06T00:35:43.612Z,6.20
2022-11-06T00:38:10.075Z,5.90
2022-11-06T00:40:36.503Z,7.00
2022-11-06T00:43:02.726Z,5.70
2022-11-06T00:45:29.029Z,5.50
2022-11-06T00:47:56.134Z,5.60
2022-11-06T00:50:26.246Z,5.50
2022-11-06T00:52:52.571Z,6.13
2022-11-06T00:55:18.836Z,5.60
2022-11-06T00:57:45.089Z,5.80
2022-11-06T01:00:11.675Z,5.90
2022-11-06T01:02:38.418Z,5.57
2022-11-06T01:05:05.148Z,5.63
2022-11-06T01:07:32.002Z,5.60
2022-11-06T01:09:58.304Z,5.80
2022-11-06T01:12:24.529Z,5.53
2022-11-06T01:14:50.857Z,5.47
2022-11-06T01:17:17.137Z,5.30
2022-11-06T01:19:43.432Z,5.40
2022-11-06T01:22:10.081Z,5.50
2022-11-06T01:24:36.505Z,5.57
2022-11-06T01:27:25.613Z,5.40
2022-11-06T01:29:49.301Z,5.60
2022-11-06T01:32:15.604Z,5.50
2022-11-06T01:34:42.118Z,5.50
2022-11-06T01:37:13.224Z,5.50
2022-11-06T01:39:40.869Z,5.50
2022-11-06T01:42:07.164Z,5.87
2022-11-06T01:44:33.379Z,5.77
2022-11-06T01:47:00.444Z,5.53
2022-11-06T01:49:28.916Z,5.70
2022-11-06T01:51:57.673Z,5.80
2022-11-06T01:54:25.445Z,5.80
2022-11-06T01:56:53.126Z,5.53
2022-11-06T01:59:20.293Z,5.60
2022-11-06T02:01:46.768Z,5.90
2022-11-06T02:04:16.167Z,6.00
2022-11-06T02:06:42.956Z,5.80
2022-11-06T02:09:12.133Z,6.87
2022-11-06T02:11:39.168Z,5.60
2022-11-06T02:14:10.967Z,5.60
2022-11-06T02:16:54.512Z,5.60
2022-11-06T02:19:39.443Z,5.40
2022-11-06T02:22:14.685Z,5.73
2022-11-06T02:24:59.774Z,5.60
2022-11-06T02:27:28.035Z,5.60
2022-11-06T02:29:54.317Z,5.60
2022-11-06T02:32:40.872Z,5.47
2022-11-06T02:35:16.467Z,5.50
2022-11-06T02:37:44.409Z,5.60
2022-11-06T02:40:11.771Z,5.70
2022-11-06T02:42:40.339Z,5.50
2022-11-06T02:45:09.436Z,5.80
2022-11-06T02:47:35.873Z,5.80
2022-11-06T02:50:23.063Z,5.67
2022-11-06T02:52:55.713Z,5.90
2022-11-06T02:55:48.188Z,5.60
2022-11-06T02:58:16.678Z,5.50
2022-11-06T03:00:45.955Z,5.60
2022-11-06T03:03:16.992Z,5.60
2022-11-06T03:05:48.931Z,5.60
2022-11-06T03:08:23.180Z,5.70
2022-11-06T03:10:57.009Z,5.70
2022-11-06T03:13:49.606Z,5.93
2022-11-06T03:16:24.914Z,5.60
2022-11-06T03:18:58.367Z,5.80
2022-11-06T03:21:27.111Z,5.70
2022-11-06T03:23:59.236Z,5.70
2022-11-06T03:26:37.004Z,5.70
2022-11-06T03:29:12.536Z,5.77
2022-11-06T03:31:44.278Z,5.63
2022-11-06T03:34:12.815Z,5.80
2022-11-06T03:36:48.180Z,5.80
2022-11-06T03:39:17.794Z,5.80
2022-11-06T03:41:51.508Z,5.73
2022-11-06T03:44:20.079Z,5.80
2022-11-06T03:46:48.256Z,5.70
2022-11-06T03:49:17.938Z,5.60
2022-11-06T03:51:48.092Z,5.90
2022-11-06T03:54:17.959Z,5.80
2022-11-06T03:56:46.238Z,5.80
2022-11-06T03:59:13.239Z,5.80
2022-11-06T04:01:44.402Z,5.80
2022-11-06T04:04:16.809Z,6.03
2022-11-06T04:06:53.421Z,5.80
2022-11-06T04:09:39.920Z,5.80
2022-11-06T04:12:26.400Z,5.80
2022-11-06T04:14:54.759Z,5.70
2022-11-06T04:17:22.634Z,5.60
2022-11-06T04:19:50.747Z,5.70
2022-11-06T04:22:34.212Z,5.70
2022-11-06T04:25:19.332Z,5.80
2022-11-06T04:27:45.967Z,5.87
2022-11-06T04:30:14.407Z,5.70
2022-11-06T04:33:00.134Z,5.70
2022-11-06T04:35:36.141Z,5.70
2022-11-06T04:38:11.544Z,5.90
2022-11-06T04:40:52.772Z,5.70
2022-11-06T04:43:22.734Z,5.70
2022-11-06T04:45:51.117Z,5.80
2022-11-06T04:48:18.484Z,5.63
2022-11-06T04:50:47.494Z,5.60
2022-11-06T04:53:14.665Z,5.50
2022-11-06T04:55:48.552Z,5.50
2022-11-06T04:58:15.625Z,5.60
2022-11-06T05:00:43.689Z,5.40
2022-11-06T05:03:09.907Z,5.80
2022-11-06T05:05:36.213Z,5.80
2022-11-06T05:08:02.530Z,5.50
2022-11-06T05:10:28.789Z,5.90
2022-11-06T05:12:55.048Z,5.80
2022-11-06T05:15:21.406Z,5.70
2022-11-06T05:17:47.811Z,5.50
2022-11-06T05:20:14.046Z,5.70
2022-11-06T05:23:00.323Z,5.60
2022-11-06T05:25:29.611Z,5.73
2022-11-06T05:27:56.410Z,5.67
2022-11-06T05:30:23.409Z,5.80
2022-11-06T05:32:49.772Z,5.70
2022-11-06T05:35:16.463Z,5.60
2022-11-06T05:37:42.697Z,5.73
2022-11-06T05:40:09.450Z,5.60
2022-11-06T05:42:39.732Z,5.60
2022-11-06T05:45:06.572Z,5.90
2022-11-06T05:47:32.912Z,5.93
2022-11-06T05:49:59.156Z,5.60
2022-11-06T05:52:25.428Z,5.50
2022-11-06T05:54:51.723Z,5.60
2022-11-06T05:57:18.052Z,5.70
2022-11-06T05:59:44.388Z,5.50
2022-11-06T06:02:10.893Z,5.93
2022-11-06T06:04:37.207Z,5.67
2022-11-06T06:07:03.427Z,5.70
2022-11-06T06:09:29.661Z,5.60
2022-11-06T06:11:55.880Z,5.80
2022-11-06T06:14:22.165Z,5.90
2022-11-06T06:16:48.392Z,5.50
2022-11-06T06:19:14.639Z,5.53
2022-11-06T06:21:40.849Z,5.60
2022-11-06T06:24:07.165Z,5.80
2022-11-06T06:26:33.394Z,5.60
2022-11-06T06:28:59.643Z,5.60
2022-11-06T06:31:26.177Z,5.53
2022-11-06T06:33:52.703Z,5.80
2022-11-06T06:36:18.957Z,5.70
2022-11-06T06:38:45.292Z,5.73
2022-11-06T06:41:11.492Z,5.60
2022-11-06T06:43:37.717Z,5.80
2022-11-06T06:46:05.497Z,5.80
2022-11-06T06:48:32.164Z,5.73
2022-11-06T06:50:59.178Z,5.77
2022-11-06T06:53:25.440Z,5.63
2022-11-06T06:55:52.016Z,5.90
2022-11-06T06:58:18.355Z,5.60
2022-11-06T07:00:44.837Z,5.60
2022-11-06T07:03:11.549Z,5.87
2022-11-06T07:05:38.689Z,5.90
2022-11-06T07:08:05.081Z,5.83
2022-11-06T07:10:32.310Z,5.83
2022-11-06T07:13:02.389Z,5.90
2022-11-06T07:15:28.670Z,5.60
2022-11-06T07:17:55.044Z,5.70
2022-11-06T07:20:21.308Z,5.80
2022-11-06T07:22:47.497Z,5.80
2022-11-06T07:25:13.758Z,5.70
2022-11-06T07:27:41.307Z,5.73
2022-11-06T07:30:07.802Z,5.90
2022-11-06T07:32:34.045Z,6.00
2022-11-06T07:35:00.269Z,5.60
2022-11-06T07:37:26.488Z,5.70
2022-11-06T07:39:52.696Z,5.77
2022-11-06T07:42:18.927Z,5.83
2022-11-06T07:44:45.176Z,5.80
2022-11-06T07:47:11.443Z,5.70
2022-11-06T07:49:37.657Z,6.07
2022-11-06T07:52:04.866Z,5.77
2022-11-06T07:54:31.145Z,5.60
2022-11-06T07:56:57.399Z,5.70
2022-11-06T07:59:23.617Z,5.60
2022-11-06T08:01:50.115Z,5.70
2022-11-06T08:04:16.635Z,5.50
2022-11-06T08:06:42.878Z,5.67
2022-11-06T08:09:09.194Z,5.47
2022-11-06T08:11:35.450Z,5.80
2022-11-06T08:14:01.735Z,5.50
2022-11-06T08:16:28.213Z,5.50
2022-11-06T08:18:54.497Z,5.70
2022-11-06T08:21:20.801Z,5.67
2022-11-06T08:23:47.094Z,5.60
2022-11-06T08:26:13.391Z,5.60
2022-11-06T08:28:39.640Z,5.63
2022-11-06T08:31:06.176Z,5.60
2022-11-06T08:33:32.581Z,6.20
2022-11-06T08:36:03.250Z,5.57
2022-11-06T08:38:29.692Z,5.50
2022-11-06T08:40:56.055Z,5.30
2022-11-06T08:43:26.319Z,5.50
2022-11-06T08:45:52.646Z,5.27
2022-11-06T08:48:18.910Z,5.30
2022-11-06T08:50:45.121Z,6.03
2022-11-06T08:53:11.760Z,5.60
2022-11-06T08:55:39.049Z,5.60
2022-11-06T08:58:05.891Z,5.40
2022-11-06T09:00:32.209Z,5.60
2022-11-06T09:02:59.476Z,5.30
2022-11-06T09:05:25.687Z,5.27
2022-11-06T09:07:52.015Z,5.30
2022-11-06T09:10:18.251Z,5.40
2022-11-06T09:12:44.495Z,5.40
2022-11-06T09:15:10.851Z,6.73
2022-11-06T09:17:44.099Z,5.10
2022-11-06T09:20:11.110Z,5.17
2022-11-06T09:22:37.632Z,5.30
2022-11-06T09:25:04.774Z,5.30
2022-11-06T09:27:31.310Z,5.10
2022-11-06T09:29:57.811Z,5.20
2022-11-06T09:32:24.498Z,5.20
2022-11-06T09:34:50.878Z,5.20
2022-11-06T09:37:17.137Z,5.10
2022-11-06T09:39:43.433Z,5.07
2022-11-06T09:42:21.058Z,4.60
2022-11-06T09:44:53.397Z,5.20
2022-11-06T09:47:22.029Z,4.90
2022-11-06T09:49:50.366Z,4.90
2022-11-06T09:52:29.751Z,5.00
2022-11-06T09:55:01.716Z,4.80
2022-11-06T09:57:33.828Z,4.80
2022-11-06T10:00:00.722Z,4.90
2022-11-06T10:02:34.077Z,4.97
2022-11-06T10:05:19.377Z,4.80
2022-11-06T10:07:46.102Z,4.70
2022-11-06T10:10:16.862Z,4.70
2022-11-06T10:13:21.744Z,4.70
2022-11-06T10:16:06.772Z,4.90
2022-11-06T10:18:35.805Z,4.50
2022-11-06T10:21:10.159Z,4.90
2022-11-06T10:23:42.751Z,4.70
2022-11-06T10:26:19.175Z,4.60
2022-11-06T10:29:05.986Z,4.57
2022-11-06T10:31:32.177Z,4.80
2022-11-06T10:34:02.551Z,4.70
2022-11-06T10:36:31.509Z,4.70
2022-11-06T10:38:58.912Z,4.70
2022-11-06T10:41:27.705Z,4.80
2022-11-06T10:44:04.865Z,4.63
2022-11-06T10:46:39.339Z,4.50
2022-11-06T10:49:11.563Z,4.57
2022-11-06T10:51:44.027Z,4.50
2022-11-06T10:54:23.589Z,4.33
2022-11-06T10:56:56.012Z,4.80
2022-11-06T10:59:22.258Z,4.60
2022-11-06T11:01:49.026Z,4.40
2022-11-06T11:04:15.391Z,4.70
2022-11-06T11:06:41.741Z,4.50
2022-11-06T11:09:23.318Z,4.30
2022-11-06T11:11:49.651Z,4.47
2022-11-06T11:14:22.757Z,4.30
2022-11-06T11:16:49.519Z,4.40
2022-11-06T11:19:27.442Z,4.40
2022-11-06T11:21:58.064Z,4.30
2022-11-06T11:24:24.756Z,4.50
2022-11-06T11:26:52.733Z,4.40
2022-11-06T11:29:42.807Z,4.40
2022-11-06T11:32:09.041Z,4.43
2022-11-06T11:34:37.565Z,4.20
2022-11-06T11:37:05.358Z,4.40
2022-11-06T11:39:31.732Z,4.30
2022-11-06T11:42:16.580Z,4.47
2022-11-06T11:44:42.836Z,4.10
2022-11-06T11:47:20.211Z,3.90
2022-11-06T11:49:46.514Z,5.53
2022-11-06T11:52:16.208Z,3.70
2022-11-06T11:54:46.616Z,5.07
2022-11-06T11:57:26.412Z,3.40
2022-11-06T11:59:56.617Z,3.50
2022-11-06T12:02:30.746Z,3.40
2022-11-06T12:05:06.334Z,3.37
2022-11-06T12:07:33.558Z,3.30
2022-11-06T12:10:00.428Z,3.40
2022-11-06T12:12:31.258Z,3.20
2022-11-06T12:15:21.179Z,3.23
2022-11-06T12:17:53.133Z,3.20
2022-11-06T12:20:22.720Z,3.40
2022-11-06T12:22:50.625Z,3.40
2022-11-06T12:25:22.184Z,3.40
2022-11-06T12:27:52.320Z,3.30
2022-11-06T12:30:19.268Z,3.30
2022-11-06T12:32:51.920Z,3.50
2022-11-06T12:35:31.589Z,3.47
2022-11-06T12:38:03.494Z,3.50
2022-11-06T12:40:37.782Z,4.63
2022-11-06T12:43:10.873Z,3.80
2022-11-06T12:45:40.228Z,3.80
2022-11-06T12:48:13.606Z,3.90
2022-11-06T12:50:45.260Z,4.03
2022-11-06T12:53:30.275Z,3.90
2022-11-06T12:56:07.679Z,3.80
2022-11-06T12:58:36.888Z,3.90
2022-11-06T13:01:09.268Z,3.90
2022-11-06T13:03:38.675Z,3.73
2022-11-06T13:06:14.031Z,3.87
2022-11-06T13:08:40.330Z,4.00
2022-11-06T13:11:13.299Z,3.80
2022-11-06T13:13:58.463Z,3.90
2022-11-06T13:16:27.826Z,3.90
2022-11-06T13:19:12.870Z,3.90
2022-11-06T13:21:51.325Z,3.83
2022-11-06T13:24:23.632Z,3.90
2022-11-06T13:26:59.509Z,3.90
2022-11-06T13:29:26.525Z,4.00
2022-11-06T13:31:58.523Z,4.00
2022-11-06T13:34:27.597Z,4.50
2022-11-06T13:36:55.245Z,3.90
2022-11-06T13:39:29.658Z,4.00
2022-11-06T13:41:56.500Z,4.10
2022-11-06T13:44:23.158Z,3.77
2022-11-06T13:46:49.710Z,3.90
2022-11-06T13:49:28.386Z,4.10
2022-11-06T13:52:02.558Z,4.10
2022-11-06T13:54:47.684Z,4.00
2022-11-06T13:57:13.963Z,4.10
2022-11-06T13:59:53.475Z,4.10
2022-11-06T14:02:28.781Z,4.20
2022-11-06T14:05:13.870Z,4.40
2022-11-06T14:07:41.126Z,4.20
2022-11-06T14:10:19.907Z,4.30
2022-11-06T14:12:48.976Z,4.20
2022-11-06T14:15:23.124Z,4.20
2022-11-06T14:17:57.187Z,4.00
2022-11-06T14:20:28.294Z,4.33
2022-11-06T14:22:54.628Z,4.10
2022-11-06T14:25:30.161Z,4.10
2022-11-06T14:27:56.416Z,4.00
2022-11-06T14:30:50.282Z,3.90
2022-11-06T14:33:34.197Z,4.00
2022-11-06T14:36:12.048Z,4.20
2022-11-06T14:38:38.423Z,4.30
2022-11-06T14:41:24.591Z,4.30
2022-11-06T14:43:51.508Z,4.30
2022-11-06T14:46:22.808Z,4.20
2022-11-06T14:48:50.791Z,4.30
2022-11-06T14:51:17.424Z,4.30
2022-11-06T14:53:47.310Z,4.37
2022-11-06T14:56:20.695Z,4.40
2022-11-06T14:58:55.994Z,4.20
2022-11-06T15:01:33.236Z,4.40
2022-11-06T15:04:14.769Z,4.23
2022-11-06T15:06:43.602Z,4.50
2022-11-06T15:09:25.293Z,4.30
2022-11-06T15:11:51.995Z,4.10
2022-11-06T15:14:20.687Z,4.50
2022-11-06T15:16:50.169Z,4.80
2022-11-06T15:19:40.837Z,4.60
2022-11-06T15:22:07.230Z,4.43
2022-11-06T15:24:39.600Z,4.50
2022-11-06T15:27:08.675Z,4.40
2022-11-06T15:29:37.494Z,4.40
2022-11-06T15:32:32.378Z,4.40
2022-11-06T15:35:08.182Z,4.37
2022-11-06T15:37:40.984Z,4.40
2022-11-06T15:40:21.481Z,4.73
2022-11-06T15:42:47.847Z,4.43
2022-11-06T15:45:15.590Z,4.60
2022-11-06T15:47:52.101Z,4.40
2022-11-06T15:50:19.783Z,4.50
2022-11-06T15:52:47.049Z,4.50
2022-11-06T15:55:23.279Z,4.40
2022-11-06T15:57:50.418Z,4.40
2022-11-06T16:00:18.001Z,4.60
2022-11-06T16:02:49.152Z,4.70
2022-11-06T16:05:19.295Z,6.70
2022-11-06T16:07:46.751Z,4.50
2022-11-06T16:10:17.615Z,4.30
2022-11-06T16:12:44.131Z,4.50
2022-11-06T16:15:29.319Z,4.40
2022-11-06T16:18:03.553Z,4.60
2022-11-06T16:20:29.884Z,4.50
2022-11-06T16:22:56.343Z,4.40
2022-11-06T16:25:22.671Z,5.50
2022-11-06T16:27:50.353Z,4.60
2022-11-06T16:30:24.845Z,4.47
2022-11-06T16:32:51.753Z,4.40
2022-11-06T16:35:35.028Z,4.60
2022-11-06T16:38:39.175Z,4.60
2022-11-06T16:41:02.861Z,4.50
2022-11-06T16:43:29.290Z,4.50
2022-11-06T16:45:56.987Z,4.50
2022-11-06T16:48:31.632Z,4.60
2022-11-06T16:51:00.169Z,4.60
2022-11-06T16:53:28.561Z,4.60
2022-11-06T16:55:58.048Z,4.60
2022-11-06T16:58:24.963Z,4.60
2022-11-06T17:00:59.419Z,4.70
2022-11-06T17:03:27.852Z,4.70
2022-11-06T17:05:55.794Z,5.30
2022-11-06T17:08:42.342Z,4.90
2022-11-06T17:11:21.776Z,4.80
2022-11-06T17:13:49.989Z,7.23
2022-11-06T17:16:17.973Z,5.00
2022-11-06T17:18:44.703Z,5.50
2022-11-06T17:21:18.639Z,5.23
2022-11-06T17:23:45.837Z,4.97
2022-11-06T17:26:21.159Z,5.30
2022-11-06T17:28:47.495Z,5.27
2022-11-06T17:31:14.829Z,4.90
2022-11-06T17:33:41.705Z,5.10
2022-11-06T17:36:12.748Z,5.00
2022-11-06T17:38:39.029Z,5.00
2022-11-06T17:41:05.319Z,4.90
2022-11-06T17:43:31.682Z,5.27
2022-11-06T17:45:58.047Z,5.00
2022-11-06T17:48:24.376Z,5.00
2022-11-06T17:51:09.593Z,4.80
2022-11-06T17:53:35.903Z,4.90
2022-11-06T17:56:03.009Z,5.00
2022-11-06T17:58:29.545Z,4.93
2022-11-06T18:01:03.546Z,4.90
2022-11-06T18:03:35.344Z,5.00
2022-11-06T18:06:02.694Z,5.00
2022-11-06T18:08:29.589Z,5.10
2022-11-06T18:10:56.066Z,5.07
2022-11-06T18:13:23.113Z,5.10
2022-11-06T18:15:49.501Z,5.00
2022-11-06T18:18:16.065Z,5.00
2022-11-06T18:20:48.650Z,4.70
2022-11-06T18:23:14.935Z,5.00
2022-11-06T18:25:41.254Z,5.00
2022-11-06T18:28:07.739Z,5.00
2022-11-06T18:30:34.776Z,5.13
2022-11-06T18:33:00.964Z,5.07
2022-11-06T18:35:27.191Z,5.00
2022-11-06T18:37:53.394Z,5.60
2022-11-06T18:40:19.604Z,5.20
2022-11-06T18:42:45.828Z,5.17
2022-11-06T18:45:12.059Z,5.20
2022-11-06T18:47:38.270Z,5.00
2022-11-06T18:50:04.664Z,5.10
2022-11-06T18:52:55.854Z,5.17
2022-11-06T18:55:17.619Z,5.10
2022-11-06T18:57:43.931Z,5.10
2022-11-06T19:00:13.159Z,5.30
2022-11-06T19:02:39.877Z,5.27
2022-11-06T19:05:06.525Z,5.00
2022-11-06T19:07:33.384Z,5.20
2022-11-06T19:09:59.681Z,5.20
2022-11-06T19:12:25.938Z,5.03
2022-11-06T19:14:52.183Z,5.00
2022-11-06T19:17:18.392Z,5.57
2022-11-06T19:19:44.697Z,5.00
2022-11-06T19:22:11.088Z,4.83
2022-11-06T19:24:37.317Z,5.20
2022-11-06T19:27:03.611Z,5.20
2022-11-06T19:29:30.164Z,5.00
2022-11-06T19:32:01.369Z,5.20
2022-11-06T19:34:34.230Z,5.00
2022-11-06T19:37:04.305Z,5.10
2022-11-06T19:39:30.523Z,4.90
2022-11-06T19:41:58.182Z,5.00
2022-11-06T19:44:24.435Z,5.00
2022-11-06T19:46:50.649Z,4.80
2022-11-06T19:49:16.901Z,5.10
2022-11-06T19:51:43.141Z,4.90
2022-11-06T19:54:10.985Z,4.90
2022-11-06T19:57:27.871Z,5.33
2022-11-06T19:59:23.782Z,5.00
2022-11-06T20:01:50.238Z,5.10
2022-11-06T20:04:16.677Z,5.63
2022-11-06T20:06:42.915Z,5.10
2022-11-06T20:09:09.170Z,5.10
2022-11-06T20:11:35.376Z,5.00
2022-11-06T20:14:01.594Z,5.13
2022-11-06T20:16:27.869Z,5.00
2022-11-06T20:18:55.509Z,5.00
2022-11-06T20:21:22.604Z,5.10
2022-11-06T20:23:49.417Z,5.10
2022-11-06T20:26:15.966Z,5.67
2022-11-06T20:28:42.338Z,5.50
2022-11-06T20:31:09.521Z,5.03
2022-11-06T20:33:36.291Z,5.10
2022-11-06T20:36:16.311Z,5.20
2022-11-06T20:38:44.580Z,5.20
2022-11-06T20:41:12.835Z,5.20
2022-11-06T20:43:40.093Z,5.07
2022-11-06T20:46:06.629Z,5.10
2022-11-06T20:48:33.088Z,5.13
2022-11-06T20:51:00.111Z,5.30
2022-11-06T20:53:26.969Z,5.10
2022-11-06T20:55:57.219Z,5.20
2022-11-06T20:58:23.862Z,5.20
2022-11-06T21:00:50.079Z,5.10
2022-11-06T21:03:16.601Z,4.87
2022-11-06T21:05:43.231Z,5.07
2022-11-06T21:08:09.529Z,4.90
2022-11-06T21:10:35.720Z,4.87
2022-11-06T21:13:02.063Z,4.83
2022-11-06T21:15:28.278Z,4.90
2022-11-06T21:17:54.514Z,5.10
2022-11-06T21:20:22.901Z,5.00
2022-11-06T21:22:49.473Z,4.90
2022-11-06T21:25:15.761Z,4.90
2022-11-06T21:27:42.097Z,4.70
2022-11-06T21:30:08.650Z,4.90
2022-11-06T21:32:34.897Z,4.73
2022-11-06T21:35:01.283Z,4.80
2022-11-06T21:37:32.691Z,5.00
2022-11-06T21:40:00.004Z,6.10
2022-11-06T21:42:26.256Z,5.00
2022-11-06T21:44:55.504Z,4.87
2022-11-06T21:47:21.755Z,5.20
2022-11-06T21:49:53.773Z,5.10
2022-11-06T21:52:39.251Z,4.90
2022-11-06T21:55:25.085Z,4.90
2022-11-06T21:57:51.338Z,5.00
2022-11-06T22:00:17.752Z,5.03
2022-11-06T22:02:44.181Z,5.00
2022-11-06T22:05:10.556Z,5.10
2022-11-06T22:07:36.745Z,4.83
2022-11-06T22:10:03.695Z,5.00
2022-11-06T22:12:29.926Z,4.90
2022-11-06T22:14:56.249Z,5.10
2022-11-06T22:17:22.456Z,4.90
2022-11-06T22:19:48.669Z,4.87
2022-11-06T22:22:14.869Z,4.90
2022-11-06T22:24:41.087Z,4.80
2022-11-06T22:27:07.438Z,4.80
2022-11-06T22:29:33.688Z,4.90
2022-11-06T22:31:59.947Z,4.70
2022-11-06T22:34:26.472Z,4.83
2022-11-06T22:36:52.671Z,4.90
2022-11-06T22:39:18.894Z,4.83
2022-11-06T22:41:45.111Z,4.80
2022-11-06T22:44:12.515Z,4.70
2022-11-06T22:46:39.006Z,4.90
2022-11-06T22:49:05.496Z,4.80
2022-11-06T22:51:32.190Z,4.87
2022-11-06T22:53:58.842Z,4.70
2022-11-06T22:56:25.653Z,4.97
2022-11-06T22:58:56.214Z,4.97
2022-11-06T23:01:23.488Z,4.80
2022-11-06T23:03:49.997Z,5.00
2022-11-06T23:06:16.242Z,4.90
2022-11-06T23:08:46.691Z,4.97
2022-11-06T23:11:14.090Z,5.00
2022-11-06T23:13:40.426Z,5.00
2022-11-06T23:16:09.722Z,5.00
2022-11-06T23:18:36.030Z,5.00
2022-11-06T23:21:10.360Z,4.87
2022-11-06T23:23:36.596Z,4.90
2022-11-06T23:26:16.349Z,5.00
2022-11-06T23:28:43.039Z,5.07
2022-11-06T23:31:10.344Z,5.10
2022-11-06T23:33:36.851Z,4.87
2022-11-06T23:36:06.993Z,5.20
2022-11-06T23:38:33.265Z,5.63
2022-11-06T23:41:24.166Z,5.10
2022-11-06T23:43:51.200Z,5.10
2022-11-06T23:46:18.138Z,5.00
2022-11-06T23:48:44.358Z,5.00
2022-11-06T23:51:10.587Z,5.00
2022-11-06T23:53:36.870Z,5.40
2022-11-06T23:56:10.118Z,4.93
2022-11-06T23:58:36.902Z,4.93
